Austin, Arkansas
Current Conditions -  °F | °C
As of 11:58 PM on Tuesday 21 Oct 2014 (Local Time) from KLRF Reporting Station
Clear Clear  
Wind Chill: 52°   Ceiling: Unl
Heat Index: 52°   Visibility: 10mi
Dew Point: 50°   Wind: 0mph
Humidity: 93%   Direction: NA
Pressure: 30.1"   Gusts: NA
Location:  35°N, 91.98°W
Report Text: KLRF 220458Z AUTO 00000KT 10SM CLR 11/10 A3010 RMK AO2 SLP195 T01110100
Loading
Personal Weather Stations






























Interactive Weather Map New forecast layout! Learn more

10-Day Weather Forecast

Advertisements
Track Severe Weather on mobile